createdAt,value
2018-02-18T00:00:05.286Z,88.30
2018-02-18T00:02:34.246Z,88.30
2018-02-18T00:05:02.459Z,88.30
2018-02-18T00:07:31.388Z,88.40
2018-02-18T00:10:00.713Z,88.40
2018-02-18T00:12:28.851Z,88.30
2018-02-18T00:14:59.885Z,88.40
2018-02-18T00:17:28.113Z,88.40
2018-02-18T00:19:56.358Z,88.40
2018-02-18T00:22:24.503Z,88.40
2018-02-18T00:24:52.685Z,88.40
2018-02-18T00:27:20.821Z,88.40
2018-02-18T00:29:48.959Z,88.40
2018-02-18T00:32:17.085Z,88.30
2018-02-18T00:34:45.987Z,88.40
2018-02-18T00:37:14.159Z,88.30
2018-02-18T00:39:43.169Z,88.40
2018-02-18T00:42:11.324Z,88.40
2018-02-18T00:44:40.225Z,88.50
2018-02-18T00:47:09.112Z,88.40
2018-02-18T00:49:38.009Z,88.40
2018-02-18T00:52:06.894Z,88.40
2018-02-18T00:54:35.813Z,88.40
2018-02-18T00:57:03.977Z,88.40
2018-02-18T00:59:32.095Z,88.40
2018-02-18T01:02:00.316Z,88.40
2018-02-18T01:04:29.196Z,88.40
2018-02-18T01:06:58.088Z,88.40
2018-02-18T01:09:27.015Z,88.40
2018-02-18T01:11:55.160Z,88.40
2018-02-18T01:14:24.058Z,88.40
2018-02-18T01:16:52.192Z,88.40
2018-02-18T01:19:20.328Z,88.40
2018-02-18T01:21:48.517Z,88.20
2018-02-18T01:24:16.741Z,88.20
2018-02-18T01:26:44.981Z,88.20
2018-02-18T01:29:13.169Z,88.10
2018-02-18T01:31:41.462Z,88.20
2018-02-18T01:34:11.543Z,88.40
2018-02-18T01:36:39.724Z,88.40
2018-02-18T01:39:07.845Z,88.20
2018-02-18T01:41:35.980Z,88.20
2018-02-18T01:44:04.765Z,88.30
2018-02-18T01:46:32.923Z,88.20
2018-02-18T01:49:01.074Z,88.30
2018-02-18T01:51:29.271Z,88.40
2018-02-18T01:53:57.447Z,88.40
2018-02-18T01:56:25.623Z,88.30
2018-02-18T01:58:54.613Z,88.30
2018-02-18T02:01:23.607Z,88.30
2018-02-18T02:03:51.773Z,88.30
2018-02-18T02:06:19.891Z,88.30
2018-02-18T02:08:48.141Z,88.30
2018-02-18T02:11:16.304Z,88.20
2018-02-18T02:13:44.541Z,88.20
2018-02-18T02:16:12.699Z,88.10
2018-02-18T02:18:41.605Z,88.10
2018-02-18T02:21:09.754Z,88.10
2018-02-18T02:23:37.862Z,88.00
2018-02-18T02:26:05.996Z,88.10
2018-02-18T02:28:34.123Z,88.10
2018-02-18T02:31:03.432Z,88.20
2018-02-18T02:33:31.598Z,88.20
2018-02-18T02:35:59.730Z,88.20
2018-02-18T02:38:27.853Z,88.10
2018-02-18T02:40:55.995Z,88.10
2018-02-18T02:43:24.149Z,88.00
2018-02-18T02:45:53.096Z,88.20
2018-02-18T02:48:21.230Z,88.00
2018-02-18T02:50:50.103Z,88.10
2018-02-18T02:53:18.255Z,88.00
2018-02-18T02:55:46.432Z,87.90
2018-02-18T02:58:14.546Z,88.00
2018-02-18T03:00:43.507Z,88.10
2018-02-18T03:03:11.619Z,88.10
2018-02-18T03:05:39.815Z,88.00
2018-02-18T03:08:07.939Z,88.10
2018-02-18T03:10:36.061Z,88.10
2018-02-18T03:13:04.237Z,87.80
2018-02-18T03:15:33.208Z,88.80
2018-02-18T03:18:01.355Z,88.10
2018-02-18T03:20:30.251Z,88.10
2018-02-18T03:22:59.157Z,88.20
2018-02-18T03:25:27.315Z,88.20
2018-02-18T03:27:55.481Z,88.10
2018-02-18T03:30:23.674Z,88.20
2018-02-18T03:32:52.552Z,89.10
2018-02-18T03:35:20.715Z,88.20
2018-02-18T03:37:48.841Z,88.20
2018-02-18T03:40:17.030Z,88.20
2018-02-18T03:42:45.165Z,88.20
2018-02-18T03:45:14.092Z,88.30
2018-02-18T03:47:42.201Z,88.30
2018-02-18T03:50:10.344Z,88.30
2018-02-18T03:52:39.231Z,88.30
2018-02-18T03:55:07.390Z,88.30
2018-02-18T03:57:35.517Z,88.30
2018-02-18T04:00:03.642Z,88.20
2018-02-18T04:02:31.792Z,88.20
2018-02-18T04:04:59.931Z,88.20
2018-02-18T04:07:28.058Z,88.30
2018-02-18T04:09:56.182Z,88.20
2018-02-18T04:12:24.360Z,88.20
2018-02-18T04:14:52.492Z,88.20
2018-02-18T04:17:20.682Z,88.20
2018-02-18T04:19:48.852Z,88.10
2018-02-18T04:22:17.032Z,88.10
2018-02-18T04:24:45.151Z,88.10
2018-02-18T04:27:14.044Z,88.20
2018-02-18T04:29:42.985Z,88.20
2018-02-18T04:32:11.343Z,88.20
2018-02-18T04:34:39.474Z,88.20
2018-02-18T04:37:07.613Z,88.20
2018-02-18T04:39:35.733Z,88.20
2018-02-18T04:42:04.627Z,88.10
2018-02-18T04:44:33.594Z,88.20
2018-02-18T04:47:01.741Z,88.10
2018-02-18T04:49:29.895Z,88.10
2018-02-18T04:51:58.037Z,88.10
2018-02-18T04:54:27.430Z,88.10
2018-02-18T04:56:56.317Z,88.10
2018-02-18T04:59:24.457Z,88.10
2018-02-18T05:01:52.587Z,89.00
2018-02-18T05:04:21.497Z,88.10
2018-02-18T05:06:49.680Z,88.80
2018-02-18T05:09:17.828Z,88.00
2018-02-18T05:11:46.128Z,88.00
2018-02-18T05:14:14.357Z,88.00
2018-02-18T05:16:42.640Z,88.00
2018-02-18T05:19:11.157Z,88.10
2018-02-18T05:21:39.302Z,88.10
2018-02-18T05:24:08.192Z,88.10
2018-02-18T05:26:37.750Z,88.10
2018-02-18T05:29:05.878Z,88.00
2018-02-18T05:31:34.848Z,88.10
2018-02-18T05:34:03.011Z,88.00
2018-02-18T05:36:31.126Z,88.10
2018-02-18T05:39:00.027Z,88.10
2018-02-18T05:41:28.146Z,88.20
2018-02-18T05:43:56.270Z,88.10
2018-02-18T05:46:24.419Z,88.10
2018-02-18T05:48:53.336Z,88.90
2018-02-18T05:51:21.488Z,88.00
2018-02-18T05:53:50.379Z,88.10
2018-02-18T05:56:19.454Z,88.10
2018-02-18T05:58:47.689Z,88.10
2018-02-18T06:01:15.928Z,88.10
2018-02-18T06:03:44.840Z,88.00
2018-02-18T06:06:13.025Z,88.00
2018-02-18T06:08:41.153Z,87.90
2018-02-18T06:11:09.275Z,87.80
2018-02-18T06:13:37.419Z,88.00
2018-02-18T06:16:06.329Z,88.10
2018-02-18T06:18:34.623Z,88.00
2018-02-18T06:21:02.749Z,88.10
2018-02-18T06:23:31.568Z,88.00
2018-02-18T06:25:59.708Z,88.00
2018-02-18T06:28:27.829Z,88.00
2018-02-18T06:30:55.960Z,88.00
2018-02-18T06:33:24.072Z,88.00
2018-02-18T06:35:52.222Z,88.00
2018-02-18T06:38:21.102Z,88.00
2018-02-18T06:40:50.016Z,88.10
2018-02-18T06:43:18.136Z,88.10
2018-02-18T06:45:46.567Z,88.10
2018-02-18T06:48:14.744Z,88.10
2018-02-18T06:50:43.374Z,88.00
2018-02-18T06:53:15.382Z,88.10
2018-02-18T06:55:44.268Z,88.10
2018-02-18T06:58:14.446Z,88.10
2018-02-18T07:00:42.596Z,88.10
2018-02-18T07:03:10.891Z,88.00
2018-02-18T07:05:39.184Z,87.90
2018-02-18T07:08:07.364Z,88.00
2018-02-18T07:10:35.704Z,88.00
2018-02-18T07:13:04.604Z,88.10
2018-02-18T07:15:32.847Z,88.10
2018-02-18T07:18:01.741Z,88.10
2018-02-18T07:20:29.894Z,88.00
2018-02-18T07:22:58.031Z,88.00
2018-02-18T07:25:26.275Z,88.10
2018-02-18T07:27:54.507Z,88.00
2018-02-18T07:30:22.651Z,88.00
2018-02-18T07:32:50.914Z,87.90
2018-02-18T07:35:19.073Z,87.80
2018-02-18T07:37:47.235Z,87.80
2018-02-18T07:40:16.129Z,87.90
2018-02-18T07:42:44.275Z,87.80
2018-02-18T07:45:12.442Z,87.80
2018-02-18T07:47:40.599Z,87.80
2018-02-18T07:50:08.718Z,87.70
2018-02-18T07:52:37.915Z,88.60
2018-02-18T07:55:06.917Z,87.80
2018-02-18T07:57:35.825Z,87.80
2018-02-18T08:00:04.236Z,87.70
2018-02-18T08:02:32.850Z,87.70
2018-02-18T08:05:00.982Z,87.80
2018-02-18T08:07:29.274Z,87.70
2018-02-18T08:10:01.407Z,87.70
2018-02-18T08:12:29.618Z,87.70
2018-02-18T08:14:57.824Z,87.60
2018-02-18T08:17:26.937Z,88.30
2018-02-18T08:19:56.527Z,87.70
2018-02-18T08:22:25.430Z,87.60
2018-02-18T08:24:54.372Z,87.50
2018-02-18T08:27:22.562Z,87.50
2018-02-18T08:29:50.678Z,87.50
2018-02-18T08:32:19.597Z,87.20
2018-02-18T08:34:47.737Z,87.20
2018-02-18T08:37:16.627Z,87.10
2018-02-18T08:39:45.530Z,87.00
2018-02-18T08:42:14.449Z,87.00
2018-02-18T08:44:42.585Z,87.00
2018-02-18T08:47:11.478Z,87.00
2018-02-18T08:49:40.426Z,87.00
2018-02-18T08:52:08.533Z,87.10
2018-02-18T08:54:37.442Z,86.80
2018-02-18T08:57:06.532Z,86.80
2018-02-18T08:59:35.426Z,86.70
2018-02-18T09:02:05.226Z,86.80
2018-02-18T09:04:34.255Z,86.60
2018-02-18T09:07:02.505Z,86.60
2018-02-18T09:09:31.472Z,86.50
2018-02-18T09:11:59.613Z,86.50
2018-02-18T09:14:27.735Z,86.50
2018-02-18T09:16:56.624Z,86.50
2018-02-18T09:19:26.006Z,86.50
2018-02-18T09:21:54.165Z,86.50
2018-02-18T09:24:22.459Z,86.50
2018-02-18T09:26:50.664Z,86.50
2018-02-18T09:29:19.541Z,87.20
2018-02-18T09:31:47.688Z,86.40
2018-02-18T09:34:15.801Z,86.30
2018-02-18T09:36:44.691Z,86.20
2018-02-18T09:39:13.587Z,86.30
2018-02-18T09:41:42.483Z,86.30
2018-02-18T09:44:11.401Z,86.30
2018-02-18T09:46:39.531Z,86.30
2018-02-18T09:49:08.572Z,86.40
2018-02-18T09:51:36.719Z,86.40
2018-02-18T09:54:05.630Z,86.20
2018-02-18T09:56:34.549Z,86.10
2018-02-18T09:59:02.839Z,86.10
2018-02-18T10:01:31.077Z,86.10
2018-02-18T10:03:59.267Z,86.10
2018-02-18T10:06:31.448Z,85.90
2018-02-18T10:08:59.693Z,85.90
2018-02-18T10:11:27.925Z,85.80
2018-02-18T10:13:56.822Z,85.60
2018-02-18T10:16:25.751Z,85.50
2018-02-18T10:18:53.888Z,85.50
2018-02-18T10:21:22.878Z,85.50
2018-02-18T10:23:51.784Z,86.30
2018-02-18T10:26:20.663Z,85.40
2018-02-18T10:28:49.608Z,86.20
2018-02-18T10:31:17.774Z,85.40
2018-02-18T10:33:45.943Z,85.40
2018-02-18T10:36:15.302Z,85.30
2018-02-18T10:38:43.498Z,85.30
2018-02-18T10:41:11.764Z,85.30
2018-02-18T10:43:40.696Z,85.20
2018-02-18T10:46:08.860Z,85.10
2018-02-18T10:48:37.008Z,85.10
2018-02-18T10:51:05.922Z,85.20
2018-02-18T10:53:35.087Z,85.20
2018-02-18T10:56:03.300Z,85.30
2018-02-18T10:58:31.530Z,85.40
2018-02-18T11:01:00.423Z,86.00
2018-02-18T11:03:29.369Z,85.10
2018-02-18T11:05:57.644Z,85.10
2018-02-18T11:08:25.772Z,85.10
2018-02-18T11:10:54.669Z,85.30
2018-02-18T11:13:27.085Z,85.20
2018-02-18T11:15:55.200Z,85.20
2018-02-18T11:18:23.342Z,85.00
2018-02-18T11:20:51.457Z,85.00
2018-02-18T11:23:21.007Z,85.00
2018-02-18T11:25:51.690Z,85.00
2018-02-18T11:28:19.835Z,85.10
2018-02-18T11:30:47.979Z,85.00
2018-02-18T11:33:16.900Z,85.70
2018-02-18T11:35:45.172Z,84.80
2018-02-18T11:38:13.295Z,84.80
2018-02-18T11:40:41.456Z,84.90
2018-02-18T11:43:09.603Z,84.90
2018-02-18T11:45:37.743Z,84.90
2018-02-18T11:48:06.676Z,85.10
2018-02-18T11:50:34.797Z,85.10
2018-02-18T11:53:03.749Z,85.40
2018-02-18T11:55:31.870Z,85.40
2018-02-18T11:58:00.795Z,85.50
2018-02-18T12:00:28.932Z,86.20
2018-02-18T12:02:57.826Z,85.50
2018-02-18T12:05:26.272Z,85.50
2018-02-18T12:07:54.438Z,85.50
2018-02-18T12:10:22.637Z,85.60
2018-02-18T12:12:51.446Z,85.70
2018-02-18T12:15:20.550Z,85.70
2018-02-18T12:17:49.470Z,85.70
2018-02-18T12:20:17.578Z,86.50
2018-02-18T12:22:45.896Z,86.00
2018-02-18T12:25:14.020Z,86.20
2018-02-18T12:27:42.268Z,86.00
2018-02-18T12:30:10.443Z,85.90
2018-02-18T12:32:38.632Z,85.80
2018-02-18T12:35:07.025Z,85.60
2018-02-18T12:37:35.194Z,85.40
2018-02-18T12:40:03.443Z,85.30
2018-02-18T12:42:31.722Z,85.30
2018-02-18T12:44:59.860Z,85.10
2018-02-18T12:47:28.934Z,85.10
2018-02-18T12:49:57.294Z,85.10
2018-02-18T12:52:25.460Z,85.20
2018-02-18T12:54:53.739Z,85.30
2018-02-18T12:57:21.921Z,85.30
2018-02-18T12:59:50.885Z,85.60
2018-02-18T13:02:19.080Z,85.50
2018-02-18T13:04:47.279Z,85.60
2018-02-18T13:07:16.193Z,85.80
2018-02-18T13:09:45.187Z,85.90
2018-02-18T13:12:14.272Z,85.90
2018-02-18T13:14:42.411Z,85.90
2018-02-18T13:17:10.583Z,86.70
2018-02-18T13:19:38.905Z,85.80
2018-02-18T13:22:07.849Z,86.00
2018-02-18T13:24:36.134Z,86.00
2018-02-18T13:27:04.373Z,85.90
2018-02-18T13:29:32.488Z,85.90
2018-02-18T13:32:00.718Z,86.00
2018-02-18T13:34:28.843Z,85.90
2018-02-18T13:36:56.999Z,86.00
2018-02-18T13:39:25.374Z,86.00
2018-02-18T13:41:53.561Z,86.00
2018-02-18T13:44:21.773Z,86.20
2018-02-18T13:46:50.834Z,86.60
2018-02-18T13:49:24.811Z,86.40
2018-02-18T13:51:53.050Z,86.50
2018-02-18T13:54:21.994Z,86.50
2018-02-18T13:56:50.840Z,86.50
2018-02-18T13:59:19.748Z,86.70
2018-02-18T14:01:48.644Z,86.40
2018-02-18T14:04:17.394Z,86.40
2018-02-18T14:06:45.549Z,86.50
2018-02-18T14:09:13.682Z,86.60
2018-02-18T14:11:41.854Z,86.40
2018-02-18T14:14:10.015Z,86.50
2018-02-18T14:16:38.945Z,86.40
2018-02-18T14:19:07.071Z,86.40
2018-02-18T14:21:35.997Z,86.40
2018-02-18T14:24:04.907Z,86.50
2018-02-18T14:26:33.073Z,86.50
2018-02-18T14:29:11.747Z,86.60
2018-02-18T14:31:40.699Z,86.60
2018-02-18T14:34:08.861Z,86.60
2018-02-18T14:36:37.003Z,86.50
2018-02-18T14:39:05.885Z,86.50
2018-02-18T14:41:52.517Z,86.20
2018-02-18T14:44:38.551Z,86.20
2018-02-18T14:47:24.699Z,86.30
2018-02-18T14:50:10.815Z,86.40
2018-02-18T14:52:56.786Z,86.60
2018-02-18T14:55:42.694Z,86.70
2018-02-18T14:58:10.835Z,86.70
2018-02-18T15:00:39.728Z,86.80
2018-02-18T15:03:08.620Z,86.90
2018-02-18T15:05:37.519Z,86.70
2018-02-18T15:08:06.400Z,86.70
2018-02-18T15:10:35.328Z,86.80
2018-02-18T15:13:04.443Z,86.80
2018-02-18T15:15:32.875Z,86.80
2018-02-18T15:18:02.534Z,87.00
2018-02-18T15:20:31.478Z,87.00
2018-02-18T15:23:00.398Z,87.00
2018-02-18T15:25:28.518Z,86.80
2018-02-18T15:27:56.662Z,87.00
2018-02-18T15:30:26.148Z,86.90
2018-02-18T15:32:54.288Z,86.90
2018-02-18T15:35:23.188Z,87.00
2018-02-18T15:37:52.395Z,87.10
2018-02-18T15:40:21.358Z,87.10
2018-02-18T15:42:50.058Z,87.00
2018-02-18T15:45:18.237Z,87.80
2018-02-18T15:47:46.362Z,87.00
2018-02-18T15:50:14.527Z,87.00
2018-02-18T15:52:42.765Z,86.90
2018-02-18T15:55:10.938Z,86.90
2018-02-18T15:57:39.902Z,87.10
2018-02-18T16:00:08.105Z,87.10
2018-02-18T16:02:36.558Z,87.10
2018-02-18T16:05:04.889Z,87.20
2018-02-18T16:07:33.106Z,87.20
2018-02-18T16:10:01.310Z,87.20
2018-02-18T16:12:30.296Z,87.20
2018-02-18T16:14:59.373Z,87.30
2018-02-18T16:17:27.755Z,87.20
2018-02-18T16:19:55.884Z,87.20
2018-02-18T16:22:24.048Z,87.20
2018-02-18T16:25:03.060Z,87.10
2018-02-18T16:27:31.194Z,87.10
2018-02-18T16:29:59.307Z,86.90
2018-02-18T16:32:28.198Z,87.00
2018-02-18T16:34:57.089Z,87.00
2018-02-18T16:37:25.968Z,87.10
2018-02-18T16:39:54.866Z,87.10
2018-02-18T16:42:23.818Z,87.10
2018-02-18T16:44:51.961Z,87.10
2018-02-18T16:47:20.087Z,87.10
2018-02-18T16:49:48.224Z,87.10
2018-02-18T16:52:16.342Z,87.70
2018-02-18T16:54:45.237Z,87.10
2018-02-18T16:57:14.215Z,87.10
2018-02-18T16:59:42.983Z,87.10
2018-02-18T17:02:11.135Z,87.10
2018-02-18T17:04:39.305Z,87.10
2018-02-18T17:07:07.519Z,87.20
2018-02-18T17:09:35.665Z,87.20
2018-02-18T17:12:03.923Z,87.20
2018-02-18T17:14:32.050Z,87.10
2018-02-18T17:17:00.231Z,87.10
2018-02-18T17:19:28.846Z,87.10
2018-02-18T17:21:56.971Z,87.90
2018-02-18T17:24:25.221Z,87.10
2018-02-18T17:26:53.347Z,87.10
2018-02-18T17:29:22.249Z,87.60
2018-02-18T17:31:51.194Z,87.10
2018-02-18T17:34:19.350Z,87.10
2018-02-18T17:36:47.506Z,87.10
2018-02-18T17:39:15.734Z,87.10
2018-02-18T17:41:44.045Z,87.20
2018-02-18T17:44:13.000Z,87.20
2018-02-18T17:46:41.199Z,87.20
2018-02-18T17:49:10.088Z,88.10
2018-02-18T17:51:39.037Z,87.20
2018-02-18T17:54:07.188Z,87.10
2018-02-18T17:56:35.371Z,87.10
2018-02-18T17:59:03.627Z,87.10
2018-02-18T18:01:31.842Z,87.30
2018-02-18T18:04:00.119Z,87.10
2018-02-18T18:06:28.395Z,87.20
2018-02-18T18:08:56.607Z,87.10
2018-02-18T18:11:24.779Z,87.20
2018-02-18T18:13:53.027Z,87.20
2018-02-18T18:16:21.168Z,87.20
2018-02-18T18:18:49.299Z,87.30
2018-02-18T18:21:17.423Z,87.30
2018-02-18T18:23:45.749Z,87.20
2018-02-18T18:26:14.598Z,87.10
2018-02-18T18:28:43.608Z,87.20
2018-02-18T18:31:11.889Z,87.20
2018-02-18T18:33:40.542Z,87.20
2018-02-18T18:36:10.061Z,87.10
2018-02-18T18:38:38.711Z,86.90
2018-02-18T18:41:07.846Z,86.50
2018-02-18T18:43:36.053Z,86.40
2018-02-18T18:46:04.200Z,86.20
2018-02-18T18:48:32.336Z,86.20
2018-02-18T18:51:00.599Z,86.40
2018-02-18T18:53:29.665Z,86.90
2018-02-18T18:55:58.008Z,86.90
2018-02-18T18:58:26.170Z,87.00
2018-02-18T19:00:54.708Z,87.20
2018-02-18T19:03:22.819Z,87.00
2018-02-18T19:05:51.416Z,86.80
2018-02-18T19:08:20.676Z,86.70
2018-02-18T19:10:48.944Z,86.70
2018-02-18T19:13:17.130Z,86.80
2018-02-18T19:15:45.265Z,86.90
2018-02-18T19:18:14.197Z,86.80
2018-02-18T19:20:42.338Z,86.70
2018-02-18T19:23:10.812Z,87.40
2018-02-18T19:25:39.007Z,86.40
2018-02-18T19:28:07.171Z,86.10
2018-02-18T19:30:35.299Z,85.90
2018-02-18T19:33:03.437Z,85.80
2018-02-18T19:35:31.824Z,85.60
2018-02-18T19:38:00.064Z,85.60
2018-02-18T19:40:29.056Z,85.50
2018-02-18T19:42:58.112Z,85.30
2018-02-18T19:45:26.412Z,85.30
2018-02-18T19:47:55.499Z,85.10
2018-02-18T19:50:23.643Z,85.10
2018-02-18T19:52:53.212Z,85.10
2018-02-18T19:55:21.617Z,85.10
2018-02-18T19:57:49.749Z,85.00
2018-02-18T20:00:17.889Z,85.00
2018-02-18T20:02:46.823Z,84.90
2018-02-18T20:05:15.782Z,85.00
2018-02-18T20:07:43.984Z,84.80
2018-02-18T20:10:12.148Z,84.80
2018-02-18T20:12:40.286Z,84.90
2018-02-18T20:15:09.202Z,84.50
2018-02-18T20:17:37.319Z,84.50
2018-02-18T20:20:05.528Z,84.50
2018-02-18T20:22:34.450Z,84.50
2018-02-18T20:25:02.662Z,84.50
2018-02-18T20:27:30.808Z,84.50
2018-02-18T20:29:58.956Z,84.60
2018-02-18T20:32:27.118Z,84.50
2018-02-18T20:34:56.980Z,84.60
2018-02-18T20:37:25.944Z,84.60
2018-02-18T20:39:54.226Z,84.60
2018-02-18T20:42:22.363Z,84.50
2018-02-18T20:44:50.500Z,84.50
2018-02-18T20:47:18.639Z,84.80
2018-02-18T20:49:46.798Z,84.50
2018-02-18T20:52:16.095Z,84.60
2018-02-18T20:54:45.066Z,84.60
2018-02-18T20:57:13.206Z,84.40
2018-02-18T20:59:41.375Z,84.40
2018-02-18T21:02:09.524Z,84.40
2018-02-18T21:04:38.479Z,84.60
2018-02-18T21:07:06.647Z,84.50
2018-02-18T21:09:34.794Z,84.50
2018-02-18T21:12:02.940Z,84.40
2018-02-18T21:14:31.895Z,84.40
2018-02-18T21:17:00.093Z,84.40
2018-02-18T21:19:29.002Z,84.40
2018-02-18T21:21:57.927Z,84.30
2018-02-18T21:24:26.123Z,84.30
2018-02-18T21:26:54.373Z,84.40
2018-02-18T21:29:22.519Z,84.40
2018-02-18T21:31:50.724Z,84.40
2018-02-18T21:34:19.661Z,84.20
2018-02-18T21:36:48.586Z,84.20
2018-02-18T21:39:16.747Z,84.10
2018-02-18T21:41:46.116Z,84.20
2018-02-18T21:44:14.368Z,84.20
2018-02-18T21:46:43.254Z,84.20
2018-02-18T21:49:11.389Z,84.30
2018-02-18T21:51:40.301Z,84.20
2018-02-18T21:54:08.460Z,84.20
2018-02-18T21:56:36.626Z,84.20
2018-02-18T21:59:05.550Z,84.00
2018-02-18T22:01:33.692Z,84.00
2018-02-18T22:04:02.632Z,84.00
2018-02-18T22:06:30.813Z,84.00
2018-02-18T22:08:58.978Z,83.90
2018-02-18T22:11:27.133Z,83.90
2018-02-18T22:13:55.276Z,83.90
2018-02-18T22:16:24.209Z,83.70
2018-02-18T22:18:52.342Z,83.70
2018-02-18T22:21:21.332Z,83.70
2018-02-18T22:23:50.294Z,83.60
2018-02-18T22:26:18.474Z,83.60
2018-02-18T22:28:46.669Z,83.60
2018-02-18T22:31:15.624Z,83.30
2018-02-18T22:33:43.732Z,83.30
2018-02-18T22:36:11.987Z,84.70
2018-02-18T22:38:40.548Z,85.40
2018-02-18T22:41:08.687Z,85.60
2018-02-18T22:43:36.817Z,85.60
2018-02-18T22:46:04.977Z,85.60
2018-02-18T22:48:33.118Z,85.50
2018-02-18T22:51:01.266Z,85.60
2018-02-18T22:53:30.175Z,85.50
2018-02-18T22:55:58.305Z,85.40
2018-02-18T22:58:26.445Z,85.30
2018-02-18T23:00:54.588Z,85.20
2018-02-18T23:03:23.605Z,85.00
2018-02-18T23:05:52.598Z,85.00
2018-02-18T23:08:20.851Z,84.70
2018-02-18T23:10:49.743Z,84.10
2018-02-18T23:13:18.630Z,83.80
2018-02-18T23:15:47.584Z,83.40
2018-02-18T23:18:15.773Z,83.30
2018-02-18T23:21:01.696Z,82.90
2018-02-18T23:23:30.596Z,82.10
2018-02-18T23:25:58.757Z,82.10
2018-02-18T23:28:30.392Z,81.80
2018-02-18T23:30:59.074Z,81.70
2018-02-18T23:33:28.005Z,81.60
2018-02-18T23:35:56.118Z,81.50
2018-02-18T23:38:24.266Z,81.40
2018-02-18T23:40:52.472Z,81.30
2018-02-18T23:43:20.643Z,81.00
2018-02-18T23:45:48.760Z,80.90
2018-02-18T23:48:17.674Z,80.70
2018-02-18T23:50:45.843Z,80.60
2018-02-18T23:53:13.972Z,80.60
2018-02-18T23:55:42.130Z,80.70
2018-02-18T23:58:10.242Z,80.90
